Time;durP1;ratioP1;P1;durP2;ratioP2;P2;SDS_P1;SDS_P2;PMS_P1;PMS_P2;Temp;Humidity;BMP_temperature;BMP_pressure;BME280_temperature;BME280_humidity;BME280_pressure;Samples;Min_cycle;Max_cycle;Signal;HPM_P1;HPM_P2
2024/01/29 00:01:19;;;;;;;4.07;3.67;;;4.50;99.90;;;;;;5095286;28;20493;-77
2024/01/29 00:03:47;;;;;;;5.03;3.90;;;4.50;99.90;;;;;;5095224;28;20465;-76
2024/01/29 00:06:16;;;;;;;4.13;3.47;;;4.50;99.90;;;;;;5096502;28;20444;-76
2024/01/29 00:08:44;;;;;;;3.70;3.30;;;4.50;99.90;;;;;;5095525;28;20949;-77
2024/01/29 00:11:13;;;;;;;4.80;3.60;;;4.50;99.90;;;;;;5095284;28;20444;-76
2024/01/29 00:13:41;;;;;;;3.90;3.47;;;4.50;99.90;;;;;;5096426;28;20961;-76
2024/01/29 00:16:09;;;;;;;5.20;3.50;;;4.50;99.90;;;;;;5095061;28;21014;-76
2024/01/29 00:18:39;;;;;;;4.43;4.00;;;4.40;99.90;;;;;;5095081;28;20440;-76
2024/01/29 00:21:07;;;;;;;4.10;3.50;;;4.40;99.90;;;;;;5095044;28;20596;-77
2024/01/29 00:23:36;;;;;;;4.20;3.50;;;4.40;99.90;;;;;;5096458;28;20452;-77
2024/01/29 00:26:04;;;;;;;4.03;3.10;;;4.40;99.90;;;;;;5095567;28;20565;-77
2024/01/29 00:28:32;;;;;;;4.70;4.00;;;4.40;99.90;;;;;;5095375;28;20468;-77
2024/01/29 00:31:00;;;;;;;4.27;3.87;;;4.40;99.90;;;;;;5094884;28;20490;-77
2024/01/29 00:33:29;;;;;;;4.20;3.80;;;4.30;99.90;;;;;;5094732;28;20464;-77
2024/01/29 00:35:59;;;;;;;4.00;3.50;;;4.30;99.90;;;;;;5096012;28;20437;-77
2024/01/29 00:38:28;;;;;;;3.90;3.10;;;4.40;99.90;;;;;;5094804;28;20444;-76
2024/01/29 00:40:56;;;;;;;4.30;3.90;;;4.30;99.90;;;;;;5094600;28;20506;-77
2024/01/29 00:43:24;;;;;;;4.73;3.40;;;4.30;99.90;;;;;;5095490;28;20896;-76
2024/01/29 00:45:52;;;;;;;5.63;3.70;;;4.30;99.90;;;;;;5096420;28;20929;-76
2024/01/29 00:48:22;;;;;;;4.40;3.47;;;4.20;99.90;;;;;;5094434;28;20449;-75
2024/01/29 00:50:50;;;;;;;4.10;3.40;;;4.20;99.90;;;;;;5094450;28;20916;-76
2024/01/29 00:53:20;;;;;;;4.70;3.63;;;4.20;99.90;;;;;;5094458;28;20468;-76
2024/01/29 00:55:49;;;;;;;4.80;4.10;;;4.10;99.90;;;;;;5094386;28;20973;-76
2024/01/29 00:58:17;;;;;;;4.17;3.40;;;4.00;99.90;;;;;;5095516;28;20515;-76
2024/01/29 01:00:45;;;;;;;5.90;3.40;;;4.10;99.90;;;;;;5094239;28;20468;-76
2024/01/29 01:03:14;;;;;;;4.47;3.43;;;4.00;99.90;;;;;;5094127;28;20472;-76
2024/01/29 01:05:42;;;;;;;5.30;3.73;;;4.00;99.90;;;;;;5095437;28;20440;-76
2024/01/29 01:08:11;;;;;;;4.97;3.83;;;4.00;99.90;;;;;;5094074;28;20792;-76
2024/01/29 01:10:40;;;;;;;4.83;3.57;;;3.90;99.90;;;;;;5095848;28;20439;-76
2024/01/29 01:13:09;;;;;;;3.63;3.10;;;3.90;99.90;;;;;;5094039;28;20468;-76
2024/01/29 01:15:37;;;;;;;4.87;3.63;;;3.90;99.90;;;;;;5093998;28;20455;-77
2024/01/29 01:18:05;;;;;;;3.60;3.10;;;3.90;99.90;;;;;;5095317;28;20432;-76
2024/01/29 01:20:34;;;;;;;3.90;3.13;;;3.80;99.90;;;;;;5093893;28;20521;-76
2024/01/29 01:23:03;;;;;;;4.00;3.60;;;3.80;99.90;;;;;;5093802;28;20460;-76
2024/01/29 01:25:31;;;;;;;4.77;3.37;;;3.80;99.90;;;;;;5095158;28;20486;-77
2024/01/29 01:28:00;;;;;;;5.03;3.07;;;3.70;99.90;;;;;;5093763;28;20953;-76
2024/01/29 01:30:29;;;;;;;7.83;3.70;;;3.70;99.90;;;;;;5095275;28;20462;-76
2024/01/29 01:32:57;;;;;;;3.53;2.93;;;3.70;99.90;;;;;;5094849;28;20459;-76
2024/01/29 01:35:25;;;;;;;3.43;3.00;;;3.60;99.90;;;;;;5095697;28;20847;-76
2024/01/29 01:37:54;;;;;;;4.80;3.30;;;3.60;99.90;;;;;;5093510;28;20543;-76
2024/01/29 01:40:22;;;;;;;4.43;3.03;;;3.60;99.90;;;;;;5093499;28;20456;-76
2024/01/29 01:42:50;;;;;;;4.17;3.50;;;3.60;99.90;;;;;;5093223;28;20456;-77
2024/01/29 01:45:20;;;;;;;4.80;3.30;;;3.50;99.90;;;;;;5093421;28;20943;-76
2024/01/29 01:47:48;;;;;;;3.97;3.27;;;3.50;99.90;;;;;;5093141;28;20547;-76
2024/01/29 01:50:17;;;;;;;4.30;3.53;;;3.50;99.90;;;;;;5093428;28;20503;-77
2024/01/29 01:52:47;;;;;;;4.47;3.60;;;3.50;99.90;;;;;;5093302;28;20468;-77
2024/01/29 01:55:16;;;;;;;4.30;3.30;;;3.40;99.90;;;;;;5093281;28;20800;-76
2024/01/29 01:57:44;;;;;;;4.33;3.63;;;3.40;99.90;;;;;;5093227;28;20475;-76
2024/01/29 02:00:14;;;;;;;3.83;3.40;;;3.40;99.90;;;;;;5094638;28;20941;-76
2024/01/29 02:02:44;;;;;;;4.10;3.03;;;3.30;99.90;;;;;;5093093;28;20852;-77
2024/01/29 02:05:12;;;;;;;4.40;3.53;;;3.30;99.90;;;;;;5094262;28;20432;-76
2024/01/29 02:07:41;;;;;;;4.30;3.53;;;3.30;99.90;;;;;;5093078;28;20448;-76
2024/01/29 02:10:09;;;;;;;4.13;3.20;;;3.20;99.90;;;;;;5094162;28;20439;-76
2024/01/29 02:12:38;;;;;;;4.13;3.73;;;3.20;99.90;;;;;;5094126;28;20479;-76
2024/01/29 02:15:08;;;;;;;4.80;3.47;;;3.20;99.90;;;;;;5092953;28;20455;-77
2024/01/29 02:17:35;;;;;;;4.10;3.10;;;3.10;99.90;;;;;;5092836;28;20459;-76
2024/01/29 02:20:08;;;;;;;5.53;3.77;;;3.10;99.90;;;;;;5092750;28;20589;-77
2024/01/29 02:22:42;;;;;;;4.03;3.60;;;3.10;99.90;;;;;;5094146;28;20479;-76
2024/01/29 02:25:10;;;;;;;4.17;3.20;;;3.10;99.90;;;;;;5092744;28;20440;-76
2024/01/29 02:27:38;;;;;;;4.70;3.53;;;3.10;99.90;;;;;;5092649;28;20447;-76
2024/01/29 02:30:08;;;;;;;3.70;3.20;;;3.10;99.90;;;;;;5092603;28;20451;-76
2024/01/29 02:32:37;;;;;;;5.30;3.60;;;3.00;99.90;;;;;;5092501;28;20469;-76
2024/01/29 02:35:06;;;;;;;4.90;3.80;;;3.00;99.90;;;;;;5092463;28;20466;-76
2024/01/29 02:37:35;;;;;;;4.57;3.87;;;3.00;99.90;;;;;;5092509;28;20459;-76
2024/01/29 02:40:06;;;;;;;4.83;3.70;;;3.00;99.90;;;;;;5092429;28;20543;-76
2024/01/29 02:42:35;;;;;;;3.83;3.43;;;3.00;99.90;;;;;;5093753;28;20490;-76
2024/01/29 02:45:04;;;;;;;4.93;4.33;;;3.00;99.90;;;;;;5092329;28;20843;-76
2024/01/29 02:47:32;;;;;;;3.67;3.13;;;2.90;99.90;;;;;;5093574;28;20459;-76
2024/01/29 02:50:00;;;;;;;4.33;3.93;;;2.90;99.90;;;;;;5093604;28;20527;-76
2024/01/29 02:52:29;;;;;;;5.73;4.70;;;2.90;99.90;;;;;;5093770;28;20452;-76
2024/01/29 02:54:57;;;;;;;4.73;4.23;;;2.90;99.90;;;;;;5091603;28;20452;-77
2024/01/29 02:57:27;;;;;;;5.60;4.17;;;2.90;99.90;;;;;;5092216;28;20458;-76
2024/01/29 02:59:55;;;;;;;5.80;4.30;;;2.80;99.90;;;;;;5092133;28;20463;-76
2024/01/29 03:02:23;;;;;;;5.43;4.10;;;2.80;99.90;;;;;;5093552;28;20509;-76
2024/01/29 03:04:52;;;;;;;4.97;4.43;;;2.80;99.90;;;;;;5092077;28;20444;-76
2024/01/29 03:07:20;;;;;;;4.20;3.80;;;2.80;99.90;;;;;;5092077;28;20531;-76
2024/01/29 03:09:49;;;;;;;5.77;3.97;;;2.80;99.90;;;;;;5093299;28;20447;-76
2024/01/29 03:12:17;;;;;;;4.40;3.77;;;2.80;99.90;;;;;;5091971;28;20454;-76
2024/01/29 03:14:47;;;;;;;4.87;3.90;;;2.70;99.90;;;;;;5091993;28;20542;-76
2024/01/29 03:17:15;;;;;;;5.73;4.20;;;2.70;99.90;;;;;;5091968;28;20482;-76
2024/01/29 03:19:43;;;;;;;4.40;4.00;;;2.70;99.90;;;;;;5093472;28;20527;-76
2024/01/29 03:22:12;;;;;;;5.07;4.57;;;2.70;99.90;;;;;;5093336;28;20500;-76
2024/01/29 03:24:40;;;;;;;4.50;4.10;;;2.70;99.90;;;;;;5093172;28;20447;-75
2024/01/29 03:27:08;;;;;;;4.20;3.80;;;2.70;99.90;;;;;;5091896;28;20454;-77
2024/01/29 03:29:36;;;;;;;4.70;4.20;;;2.70;99.90;;;;;;5093386;28;20440;-76
2024/01/29 03:32:07;;;;;;;5.20;4.60;;;2.60;99.90;;;;;;5091747;28;20441;-76
2024/01/29 03:34:35;;;;;;;4.70;3.90;;;2.60;99.90;;;;;;5091926;28;20876;-76
2024/01/29 03:37:04;;;;;;;5.63;3.87;;;2.60;99.90;;;;;;5093157;28;20436;-76
2024/01/29 03:39:32;;;;;;;4.17;3.57;;;2.60;99.90;;;;;;5093362;28;20436;-76
2024/01/29 03:42:01;;;;;;;4.23;3.80;;;2.60;99.90;;;;;;5091688;28;20490;-76
2024/01/29 03:44:29;;;;;;;4.30;3.87;;;2.60;99.90;;;;;;5091618;28;21098;-76
2024/01/29 03:46:57;;;;;;;6.30;4.33;;;2.60;99.90;;;;;;5091617;28;20467;-76
2024/01/29 03:49:27;;;;;;;7.37;4.93;;;2.50;99.90;;;;;;5093294;28;20485;-76
2024/01/29 03:51:55;;;;;;;4.70;3.70;;;2.50;99.90;;;;;;5091720;28;20448;-76
2024/01/29 03:54:23;;;;;;;4.20;3.23;;;2.50;99.90;;;;;;5091674;28;20456;-76
2024/01/29 03:56:52;;;;;;;4.67;4.10;;;2.50;99.90;;;;;;5092825;28;20432;-76
2024/01/29 03:59:20;;;;;;;4.13;3.73;;;2.40;99.90;;;;;;5091532;28;20443;-76
2024/01/29 04:01:48;;;;;;;4.77;3.77;;;2.40;99.90;;;;;;5091526;28;20495;-76
2024/01/29 04:04:17;;;;;;;4.90;4.17;;;2.40;99.90;;;;;;5092682;28;20550;-76
2024/01/29 04:06:48;;;;;;;5.33;3.80;;;2.40;99.90;;;;;;5094592;28;20451;-76
2024/01/29 04:09:20;;;;;;;8.60;7.43;;;2.40;99.90;;;;;;5095885;28;20444;-77
2024/01/29 04:11:50;;;;;;;5.77;4.50;;;2.30;99.90;;;;;;5095932;28;20838;-77
2024/01/29 04:14:20;;;;;;;14.70;9.80;;;2.30;99.90;;;;;;5096819;28;20455;-77
2024/01/29 04:16:51;;;;;;;5.77;4.53;;;2.30;99.90;;;;;;5097035;28;20419;-77
2024/01/29 04:19:19;;;;;;;11.03;6.50;;;2.30;99.90;;;;;;5095655;28;20492;-76
2024/01/29 04:21:49;;;;;;;4.97;4.33;;;2.30;99.90;;;;;;5095287;28;20451;-76
2024/01/29 04:24:17;;;;;;;6.83;5.43;;;2.20;99.90;;;;;;5095056;28;20471;-75
2024/01/29 04:26:46;;;;;;;10.17;7.67;;;2.20;99.90;;;;;;5095062;28;20451;-76
2024/01/29 04:29:14;;;;;;;7.30;5.53;;;2.20;99.90;;;;;;5094977;28;20479;-76
2024/01/29 04:31:42;;;;;;;13.27;8.30;;;2.20;99.90;;;;;;5096360;28;20446;-76
2024/01/29 04:34:10;;;;;;;10.37;7.60;;;2.20;99.90;;;;;;5096144;28;20809;-77
2024/01/29 04:36:39;;;;;;;7.20;5.70;;;2.20;99.90;;;;;;5096089;28;20476;-76
2024/01/29 04:39:08;;;;;;;6.53;5.70;;;2.20;99.90;;;;;;5094782;28;20949;-76
2024/01/29 04:41:37;;;;;;;5.10;4.50;;;2.20;99.90;;;;;;5094724;28;20448;-76
2024/01/29 04:44:05;;;;;;;7.63;4.90;;;2.10;99.90;;;;;;5094515;28;20567;-76
2024/01/29 04:46:33;;;;;;;6.37;4.50;;;2.10;99.90;;;;;;5094929;28;20832;-77
2024/01/29 04:49:02;;;;;;;5.50;4.93;;;2.10;99.90;;;;;;5095209;28;20561;-77
2024/01/29 04:51:30;;;;;;;5.67;4.70;;;2.10;99.90;;;;;;5094872;28;20446;-77
2024/01/29 04:53:59;;;;;;;4.03;3.17;;;2.10;99.90;;;;;;5094374;28;21074;-76
2024/01/29 04:56:28;;;;;;;4.07;3.30;;;2.10;99.90;;;;;;5094276;28;20448;-76
2024/01/29 04:58:56;;;;;;;4.37;3.97;;;2.00;99.90;;;;;;5094320;28;20483;-76
2024/01/29 05:01:25;;;;;;;4.80;4.27;;;2.00;99.90;;;;;;5094244;28;20441;-76
2024/01/29 05:03:53;;;;;;;5.90;4.10;;;2.00;99.90;;;;;;5095297;28;20563;-76
2024/01/29 05:06:23;;;;;;;33.63;16.87;;;2.00;99.90;;;;;;5095420;28;20435;-76
2024/01/29 05:08:51;;;;;;;8.43;5.97;;;2.00;99.90;;;;;;5094075;28;20474;-76
2024/01/29 05:11:19;;;;;;;5.53;4.37;;;2.00;99.90;;;;;;5094012;28;20455;-76
2024/01/29 05:13:49;;;;;;;28.07;18.20;;;1.90;99.90;;;;;;5095262;28;20459;-75
2024/01/29 05:16:18;;;;;;;9.33;5.70;;;1.90;99.90;;;;;;5094011;28;20485;-76
2024/01/29 05:18:47;;;;;;;6.77;5.17;;;1.90;99.90;;;;;;5094788;28;20444;-76
2024/01/29 05:21:16;;;;;;;7.07;5.07;;;1.90;99.90;;;;;;5093901;28;20452;-76
2024/01/29 05:23:44;;;;;;;5.40;4.87;;;1.90;99.90;;;;;;5095049;28;20481;-76
2024/01/29 05:26:12;;;;;;;5.17;4.23;;;1.90;99.90;;;;;;5093897;28;20455;-77
2024/01/29 05:28:41;;;;;;;5.33;4.47;;;1.90;99.90;;;;;;5093828;28;20494;-76
2024/01/29 05:31:11;;;;;;;4.30;3.40;;;1.80;99.90;;;;;;5094945;28;20439;-76
2024/01/29 05:33:39;;;;;;;5.23;4.43;;;1.80;99.90;;;;;;5093700;28;20475;-76
2024/01/29 05:36:08;;;;;;;7.40;5.33;;;1.80;99.90;;;;;;5093744;28;20808;-76
2024/01/29 05:38:36;;;;;;;8.27;5.40;;;1.80;99.90;;;;;;5093580;28;20446;-76
2024/01/29 05:41:05;;;;;;;15.20;11.10;;;1.80;99.90;;;;;;5093531;28;21036;-76
2024/01/29 05:43:33;;;;;;;15.43;9.50;;;1.80;99.90;;;;;;5093406;28;20506;-75
2024/01/29 05:46:01;;;;;;;7.13;4.93;;;1.80;99.90;;;;;;5094648;28;21006;-76
2024/01/29 05:48:31;;;;;;;6.37;5.53;;;1.70;99.90;;;;;;5094725;28;20944;-76
2024/01/29 05:51:00;;;;;;;5.77;4.70;;;1.70;99.90;;;;;;5093407;28;20462;-76
2024/01/29 05:53:28;;;;;;;4.67;4.07;;;1.70;99.90;;;;;;5093271;28;20500;-76
2024/01/29 05:55:56;;;;;;;6.93;4.77;;;1.70;99.90;;;;;;5093267;28;20474;-75
2024/01/29 05:58:25;;;;;;;9.13;6.20;;;1.60;99.90;;;;;;5094465;28;20439;-76
2024/01/29 06:00:53;;;;;;;7.07;6.37;;;1.60;99.90;;;;;;5094462;28;20432;-76
2024/01/29 06:03:21;;;;;;;13.20;10.90;;;1.60;99.90;;;;;;5092975;28;20476;-76
2024/01/29 06:05:51;;;;;;;10.57;9.33;;;1.60;99.90;;;;;;5093224;28;20521;-77
2024/01/29 06:08:20;;;;;;;8.70;7.33;;;1.60;99.90;;;;;;5094033;28;20505;-77
2024/01/29 06:10:48;;;;;;;8.77;6.20;;;1.60;99.90;;;;;;5093332;28;20847;-76
2024/01/29 06:13:20;;;;;;;7.57;6.00;;;1.60;99.90;;;;;;5093119;28;21006;-77
2024/01/29 06:15:48;;;;;;;6.67;4.63;;;1.60;99.90;;;;;;5092893;28;20472;-77
2024/01/29 06:18:16;;;;;;;5.67;4.37;;;1.50;99.90;;;;;;5092977;28;20873;-77
2024/01/29 06:20:44;;;;;;;5.17;4.10;;;1.60;99.90;;;;;;5093045;28;20475;-76
2024/01/29 06:23:15;;;;;;;6.40;4.00;;;1.50;99.90;;;;;;5092739;28;20494;-75
2024/01/29 06:25:43;;;;;;;6.37;4.70;;;1.60;99.90;;;;;;5092801;28;20516;-75
2024/01/29 06:28:11;;;;;;;4.77;4.23;;;1.50;99.90;;;;;;5092547;28;20890;-75
2024/01/29 06:30:39;;;;;;;6.23;4.70;;;1.50;99.90;;;;;;5092075;28;20451;-76
2024/01/29 06:33:07;;;;;;;9.23;6.80;;;1.50;99.90;;;;;;5093790;28;20455;-75
2024/01/29 06:35:36;;;;;;;5.30;4.60;;;1.50;99.90;;;;;;5092894;28;20452;-76
2024/01/29 06:38:04;;;;;;;6.33;4.60;;;1.50;99.90;;;;;;5093134;28;20448;-77
2024/01/29 06:40:34;;;;;;;5.80;4.63;;;1.50;99.90;;;;;;5093545;28;20907;-76
2024/01/29 06:43:02;;;;;;;6.40;4.40;;;1.50;99.90;;;;;;5092922;28;20479;-78
2024/01/29 06:45:32;;;;;;;4.57;4.00;;;1.50;99.90;;;;;;5092515;28;20986;-74
2024/01/29 06:48:00;;;;;;;8.00;3.83;;;1.50;99.90;;;;;;5093765;28;21018;-76
2024/01/29 06:50:28;;;;;;;4.10;3.67;;;1.50;99.90;;;;;;5092953;28;20443;-76
2024/01/29 06:52:57;;;;;;;4.77;3.77;;;1.50;99.90;;;;;;5092307;28;20588;-76
2024/01/29 06:55:25;;;;;;;8.70;4.30;;;1.50;99.90;;;;;;5092270;28;20534;-75
2024/01/29 06:57:54;;;;;;;4.33;3.93;;;1.50;99.90;;;;;;5092332;28;20527;-77
2024/01/29 07:00:23;;;;;;;6.37;3.83;;;1.50;99.90;;;;;;5092625;28;20441;-77
2024/01/29 07:02:51;;;;;;;4.00;3.27;;;1.60;99.90;;;;;;5092439;28;20507;-77
2024/01/29 07:05:20;;;;;;;4.10;3.60;;;1.50;99.90;;;;;;5092191;28;20505;-76
2024/01/29 07:07:48;;;;;;;6.67;3.93;;;1.60;99.90;;;;;;5092193;28;20452;-76
2024/01/29 07:10:16;;;;;;;6.10;4.20;;;1.60;99.90;;;;;;5092059;28;21020;-77
2024/01/29 07:12:45;;;;;;;5.90;4.13;;;1.50;99.90;;;;;;5091881;28;20475;-76
2024/01/29 07:15:15;;;;;;;5.07;3.50;;;1.60;99.90;;;;;;5091787;28;20554;-77
2024/01/29 07:17:43;;;;;;;5.70;4.70;;;1.60;99.90;;;;;;5091873;28;20447;-76
2024/01/29 07:20:12;;;;;;;5.20;3.67;;;1.60;99.90;;;;;;5092267;28;20479;-76
2024/01/29 07:22:42;;;;;;;4.77;3.80;;;1.60;99.90;;;;;;5091882;28;20506;-76
2024/01/29 07:25:10;;;;;;;4.10;3.50;;;1.60;99.90;;;;;;5091813;28;21041;-76
2024/01/29 07:27:39;;;;;;;4.30;3.70;;;1.60;99.90;;;;;;5091963;28;20448;-76
2024/01/29 07:30:08;;;;;;;5.27;3.70;;;1.60;99.90;;;;;;5091865;28;20447;-76
2024/01/29 07:32:38;;;;;;;4.87;3.50;;;1.60;99.90;;;;;;5091820;28;20459;-76
2024/01/29 07:35:07;;;;;;;3.80;3.40;;;1.60;99.90;;;;;;5091894;28;20444;-76
2024/01/29 07:37:36;;;;;;;4.67;4.00;;;1.70;99.90;;;;;;5091828;28;20459;-76
2024/01/29 07:40:05;;;;;;;3.70;3.27;;;1.70;99.90;;;;;;5092160;28;20781;-76
2024/01/29 07:42:33;;;;;;;4.50;3.73;;;1.70;99.90;;;;;;5095789;28;20538;-76
2024/01/29 07:45:02;;;;;;;4.30;3.60;;;1.80;99.90;;;;;;5096963;28;20468;-76
2024/01/29 07:47:30;;;;;;;4.03;3.63;;;1.80;99.90;;;;;;5095965;28;20451;-77
2024/01/29 07:50:01;;;;;;;4.30;3.70;;;1.90;99.90;;;;;;5096921;28;20965;-76
2024/01/29 07:52:29;;;;;;;4.43;3.60;;;1.90;99.90;;;;;;5096730;28;20492;-77
2024/01/29 07:54:58;;;;;;;4.30;3.77;;;2.00;99.90;;;;;;5097360;28;20455;-77
2024/01/29 07:57:27;;;;;;;6.30;4.43;;;2.00;99.90;;;;;;5096922;28;20435;-77
2024/01/29 07:59:57;;;;;;;5.87;4.63;;;2.00;99.90;;;;;;5095491;28;20444;-76
2024/01/29 08:02:25;;;;;;;5.37;4.00;;;2.10;99.90;;;;;;5095402;28;20444;-77
2024/01/29 08:04:53;;;;;;;5.30;3.77;;;2.20;99.90;;;;;;5096983;28;20471;-76
2024/01/29 08:07:24;;;;;;;3.83;3.47;;;2.20;99.90;;;;;;5095573;28;20473;-77
2024/01/29 08:09:52;;;;;;;4.33;3.70;;;2.30;99.90;;;;;;5096708;28;20511;-76
2024/01/29 08:12:20;;;;;;;4.10;3.60;;;2.20;99.90;;;;;;5095360;28;20966;-77
2024/01/29 08:14:49;;;;;;;6.10;4.47;;;2.30;99.90;;;;;;5095399;28;20445;-76
2024/01/29 08:17:17;;;;;;;4.23;3.83;;;2.40;99.90;;;;;;5096771;28;20526;-77
2024/01/29 08:19:45;;;;;;;7.37;4.10;;;2.40;99.90;;;;;;5095447;28;20934;-76
2024/01/29 08:22:14;;;;;;;5.00;3.90;;;2.40;99.90;;;;;;5095084;28;20813;-77
2024/01/29 08:24:44;;;;;;;4.40;3.70;;;2.50;99.90;;;;;;5096632;28;20903;-76
2024/01/29 08:27:13;;;;;;;5.50;4.00;;;2.50;99.90;;;;;;5095110;28;20444;-77
2024/01/29 08:29:41;;;;;;;4.40;4.00;;;2.60;99.90;;;;;;5096532;28;20888;-76
2024/01/29 08:32:10;;;;;;;5.77;4.53;;;2.60;99.90;;;;;;5094921;28;20506;-76
2024/01/29 08:34:38;;;;;;;5.20;4.03;;;2.60;99.90;;;;;;5094981;28;20929;-77
2024/01/29 08:37:06;;;;;;;6.30;4.77;;;2.70;99.90;;;;;;5094906;28;20453;-76
2024/01/29 08:39:35;;;;;;;6.43;5.83;;;2.70;99.90;;;;;;5094835;28;20871;-76
2024/01/29 08:42:06;;;;;;;5.90;4.77;;;2.70;99.90;;;;;;5096052;28;20443;-77
2024/01/29 08:44:35;;;;;;;6.33;4.37;;;2.80;99.90;;;;;;5094609;28;20471;-77
2024/01/29 08:47:03;;;;;;;5.20;4.70;;;2.80;99.90;;;;;;5095640;28;20929;-77
2024/01/29 08:49:32;;;;;;;8.53;4.13;;;2.80;99.90;;;;;;5094614;28;20448;-76
2024/01/29 08:52:01;;;;;;;5.13;4.63;;;2.90;99.90;;;;;;5094680;28;20858;-77
2024/01/29 08:54:29;;;;;;;5.13;4.63;;;2.90;99.90;;;;;;5094431;28;20463;-76
2024/01/29 08:56:58;;;;;;;5.83;5.03;;;3.00;99.90;;;;;;5094358;28;20479;-77
2024/01/29 08:59:31;;;;;;;5.13;4.37;;;3.00;99.90;;;;;;5094505;28;20497;-77
2024/01/29 09:01:59;;;;;;;5.30;4.43;;;3.00;99.90;;;;;;5095270;28;20433;-77
2024/01/29 09:04:27;;;;;;;5.57;5.07;;;3.10;99.90;;;;;;5094462;28;20468;-77
2024/01/29 09:06:56;;;;;;;6.30;4.53;;;3.10;99.90;;;;;;5096158;28;20439;-77
2024/01/29 09:09:24;;;;;;;6.33;4.67;;;3.10;99.90;;;;;;5094687;28;20436;-77
2024/01/29 09:11:52;;;;;;;5.40;4.87;;;3.20;99.90;;;;;;5094857;28;20807;-77
2024/01/29 09:14:21;;;;;;;5.30;4.37;;;3.30;99.90;;;;;;5095447;28;20962;-77
2024/01/29 09:16:51;;;;;;;6.20;4.77;;;3.40;99.90;;;;;;5094162;28;20521;-77
2024/01/29 09:19:20;;;;;;;5.73;5.13;;;3.40;99.90;;;;;;5094049;28;20452;-77
2024/01/29 09:21:49;;;;;;;4.53;4.00;;;3.50;99.90;;;;;;5094049;28;20527;-76
2024/01/29 09:24:18;;;;;;;4.73;4.33;;;3.50;99.90;;;;;;5093855;28;20470;-77
2024/01/29 09:26:46;;;;;;;6.43;4.23;;;3.60;99.90;;;;;;5093897;28;20464;-77
2024/01/29 09:29:14;;;;;;;8.07;5.17;;;3.70;99.90;;;;;;5093898;28;20440;-77
2024/01/29 09:31:43;;;;;;;4.90;4.40;;;3.70;99.90;;;;;;5094707;28;20457;-77
2024/01/29 09:34:13;;;;;;;4.50;4.10;;;3.90;99.90;;;;;;5095245;28;20853;-76
2024/01/29 09:36:42;;;;;;;4.03;3.73;;;4.00;99.90;;;;;;5093820;28;20490;-76
2024/01/29 09:39:10;;;;;;;5.87;4.60;;;4.10;99.90;;;;;;5093649;28;20957;-77
2024/01/29 09:41:39;;;;;;;4.73;4.23;;;4.10;99.90;;;;;;5095059;28;20440;-75
2024/01/29 09:44:09;;;;;;;5.00;4.50;;;4.20;99.90;;;;;;5093517;28;20464;-77
2024/01/29 09:46:40;;;;;;;4.93;4.43;;;4.30;99.90;;;;;;5093666;28;20511;-77
2024/01/29 09:49:08;;;;;;;4.40;3.77;;;4.40;99.90;;;;;;5093976;28;20855;-77
2024/01/29 09:51:39;;;;;;;5.73;4.70;;;4.50;99.90;;;;;;5095252;28;20466;-77
2024/01/29 09:54:07;;;;;;;5.00;4.50;;;4.60;99.90;;;;;;5093644;28;20560;-77
2024/01/29 09:56:35;;;;;;;5.17;4.30;;;4.70;99.90;;;;;;5093322;28;20483;-77
2024/01/29 09:59:04;;;;;;;8.27;4.70;;;4.70;99.90;;;;;;5093289;28;20480;-77
2024/01/29 10:01:34;;;;;;;5.60;5.07;;;4.80;99.90;;;;;;5093787;28;20531;-77
2024/01/29 10:04:04;;;;;;;5.90;5.30;;;4.90;99.90;;;;;;5094359;28;20468;-77
2024/01/29 10:06:32;;;;;;;5.03;4.53;;;5.00;99.90;;;;;;5094009;28;20464;-77
2024/01/29 10:09:04;;;;;;;4.50;4.10;;;5.10;99.90;;;;;;5094717;28;20437;-77
2024/01/29 10:11:33;;;;;;;5.53;4.93;;;5.20;99.90;;;;;;5093101;28;20488;-75
2024/01/29 10:14:01;;;;;;;6.43;4.40;;;5.30;99.90;;;;;;5094243;28;20526;-76
2024/01/29 10:16:30;;;;;;;4.73;4.13;;;5.30;99.90;;;;;;5092959;28;21043;-77
2024/01/29 10:18:58;;;;;;;5.00;4.50;;;5.40;99.90;;;;;;5092798;28;20953;-77
2024/01/29 10:21:31;;;;;;;4.90;4.50;;;5.50;99.90;;;;;;5092966;28;20507;-77
2024/01/29 10:24:02;;;;;;;4.80;4.40;;;5.60;99.90;;;;;;5093982;28;20551;-77
2024/01/29 10:26:30;;;;;;;5.27;4.70;;;5.80;99.90;;;;;;5092803;28;20514;-76
2024/01/29 10:29:02;;;;;;;5.60;5.03;;;5.90;99.90;;;;;;5094213;28;20953;-77
2024/01/29 10:31:31;;;;;;;6.50;5.47;;;6.00;99.90;;;;;;5094392;28;20446;-76
2024/01/29 10:33:59;;;;;;;5.20;4.80;;;6.00;99.90;;;;;;5092826;28;20464;-77
2024/01/29 10:36:29;;;;;;;6.73;4.40;;;6.10;99.90;;;;;;5093997;28;20486;-77
2024/01/29 10:39:03;;;;;;;5.70;5.20;;;6.20;99.90;;;;;;5092723;28;20437;-77
2024/01/29 10:41:34;;;;;;;7.83;5.60;;;6.30;99.90;;;;;;5092749;28;20959;-77
2024/01/29 10:44:05;;;;;;;5.43;4.93;;;6.40;99.90;;;;;;5092746;28;20456;-77
2024/01/29 10:46:37;;;;;;;5.03;4.50;;;6.40;99.90;;;;;;5092424;28;20485;-77
2024/01/29 10:49:06;;;;;;;8.30;5.67;;;6.60;99.90;;;;;;5092663;28;20958;-77
2024/01/29 10:51:36;;;;;;;6.10;5.60;;;6.60;99.90;;;;;;5092679;28;20452;-77
2024/01/29 10:54:08;;;;;;;6.27;5.17;;;6.70;99.90;;;;;;5094028;28;20958;-77
2024/01/29 10:56:37;;;;;;;5.60;5.10;;;6.80;99.90;;;;;;5092613;28;20448;-77
2024/01/29 10:59:06;;;;;;;5.90;5.30;;;6.80;99.90;;;;;;5092508;28;20434;-77
2024/01/29 11:01:35;;;;;;;6.20;5.13;;;6.90;99.90;;;;;;5092493;28;20891;-77
2024/01/29 11:04:08;;;;;;;6.20;5.60;;;7.00;99.90;;;;;;5094463;28;21025;-77
2024/01/29 11:06:40;;;;;;;8.10;6.40;;;7.10;99.90;;;;;;5096562;28;20470;-78
2024/01/29 11:09:13;;;;;;;6.00;5.50;;;7.20;99.90;;;;;;5094469;28;20466;-77
2024/01/29 11:11:44;;;;;;;6.87;6.20;;;7.30;99.90;;;;;;5094717;28;20477;-77
2024/01/29 11:14:12;;;;;;;6.80;6.20;;;7.40;99.90;;;;;;5097275;28;20486;-78
2024/01/29 11:16:41;;;;;;;6.27;5.67;;;7.50;99.90;;;;;;5095480;28;20434;-78
2024/01/29 11:19:10;;;;;;;5.73;5.23;;;7.70;99.90;;;;;;5092388;28;20450;-77
2024/01/29 11:21:45;;;;;;;7.10;5.67;;;7.80;99.90;;;;;;5095039;28;20964;-77
2024/01/29 11:24:15;;;;;;;6.50;5.90;;;7.90;99.90;;;;;;5092654;28;20478;-76
2024/01/29 11:26:43;;;;;;;7.37;6.77;;;8.00;99.90;;;;;;5092303;28;20492;-77
2024/01/29 11:29:11;;;;;;;7.03;6.30;;;8.10;99.90;;;;;;5094761;28;20490;-76
2024/01/29 11:31:40;;;;;;;7.63;6.90;;;8.10;99.90;;;;;;5092928;28;20448;-77
2024/01/29 11:34:08;;;;;;;7.40;6.63;;;8.20;99.90;;;;;;5094974;28;20456;-77
2024/01/29 11:36:37;;;;;;;7.20;6.60;;;8.20;99.90;;;;;;5095161;28;20435;-77
2024/01/29 11:39:08;;;;;;;6.87;6.30;;;8.30;99.90;;;;;;5094148;28;20455;-77
2024/01/29 11:41:38;;;;;;;6.30;5.70;;;8.40;99.90;;;;;;5094516;28;20447;-77
2024/01/29 11:44:07;;;;;;;6.80;6.20;;;8.40;99.90;;;;;;5095287;28;20460;-77
2024/01/29 11:46:35;;;;;;;6.90;6.23;;;8.50;99.90;;;;;;5093706;28;20474;-76
2024/01/29 11:49:03;;;;;;;5.67;5.23;;;8.50;99.90;;;;;;5091839;28;20840;-77
2024/01/29 11:51:34;;;;;;;8.13;6.60;;;8.60;99.90;;;;;;5092807;28;20869;-77
2024/01/29 11:54:02;;;;;;;7.80;6.43;;;8.60;99.90;;;;;;5094176;28;20459;-78
2024/01/29 11:56:30;;;;;;;7.17;6.57;;;8.70;99.90;;;;;;5093569;28;20444;-76
2024/01/29 11:59:04;;;;;;;6.53;5.93;;;8.80;99.90;;;;;;5092039;28;20559;-77
2024/01/29 12:01:32;;;;;;;6.77;6.10;;;8.80;99.90;;;;;;5092032;28;20491;-77
2024/01/29 12:04:02;;;;;;;7.20;6.60;;;8.90;99.90;;;;;;5091985;28;20474;-77
2024/01/29 12:06:34;;;;;;;8.17;7.37;;;9.00;99.90;;;;;;5091714;28;20471;-77
2024/01/29 12:09:03;;;;;;;7.57;6.87;;;9.10;99.90;;;;;;5092015;28;20475;-76
2024/01/29 12:11:31;;;;;;;7.97;7.27;;;9.10;99.90;;;;;;5092129;28;20535;-77
2024/01/29 12:13:59;;;;;;;8.40;7.70;;;9.20;99.90;;;;;;5092258;28;20507;-77
2024/01/29 12:16:30;;;;;;;8.27;7.57;;;9.30;99.90;;;;;;5091877;28;20463;-77
2024/01/29 12:18:59;;;;;;;7.30;6.60;;;9.30;99.90;;;;;;5094160;28;20416;-77
2024/01/29 12:21:27;;;;;;;7.80;6.97;;;9.40;99.90;;;;;;5093102;28;20456;-77
2024/01/29 12:23:57;;;;;;;7.80;7.00;;;9.50;99.90;;;;;;5094047;28;20857;-77
2024/01/29 12:26:29;;;;;;;7.97;7.20;;;9.50;99.90;;;;;;5092817;28;20456;-77
2024/01/29 12:28:59;;;;;;;7.73;6.73;;;9.50;99.90;;;;;;5095892;28;20474;-77
2024/01/29 12:31:32;;;;;;;8.90;8.10;;;9.50;99.90;;;;;;5096209;28;20936;-77
2024/01/29 12:34:00;;;;;;;7.40;6.80;;;9.60;99.90;;;;;;5096027;28;20517;-77
2024/01/29 12:36:29;;;;;;;8.67;7.87;;;9.60;99.90;;;;;;5096627;28;20502;-77
2024/01/29 12:38:58;;;;;;;8.37;7.67;;;9.60;99.90;;;;;;5096221;28;20440;-77
2024/01/29 12:41:34;;;;;;;7.60;6.90;;;9.70;99.90;;;;;;5097188;28;20515;-77
2024/01/29 12:44:10;;;;;;;7.70;7.00;;;9.70;99.90;;;;;;5097038;28;20451;-77
2024/01/29 12:46:40;;;;;;;7.67;6.97;;;9.70;99.90;;;;;;5095180;28;21004;-77
2024/01/29 12:49:09;;;;;;;8.50;7.80;;;9.70;99.90;;;;;;5095289;28;20957;-77
2024/01/29 12:51:37;;;;;;;8.60;7.80;;;9.80;99.90;;;;;;5095299;28;20452;-77
2024/01/29 12:54:07;;;;;;;8.97;8.10;;;9.90;99.90;;;;;;5095251;28;20930;-77
2024/01/29 12:56:35;;;;;;;8.63;7.93;;;9.90;99.90;;;;;;5094993;28;20463;-77
2024/01/29 12:59:06;;;;;;;8.93;8.03;;;9.90;99.90;;;;;;5095539;28;20440;-77
2024/01/29 13:01:35;;;;;;;8.50;7.70;;;10.00;99.90;;;;;;5098198;28;20922;-78
2024/01/29 13:04:05;;;;;;;8.10;7.43;;;10.10;99.90;;;;;;5095377;28;20509;-77